Time;durP1;ratioP1;P1;durP2;ratioP2;P2;SDS_P1;SDS_P2;PMS_P1;PMS_P2;Temp;Humidity;BMP_temperature;BMP_pressure;BME280_temperature;BME280_humidity;BME280_pressure;Samples;Min_cycle;Max_cycle;Signal;HPM_P1;HPM_P2
2023/12/15 00:02:01;;;;;;;15.43;9.00;;;3.50;99.90;;;;;;5224217;28;20280;-51
2023/12/15 00:04:32;;;;;;;12.40;8.50;;;3.50;99.90;;;;;;5222269;28;20287;-53
2023/12/15 00:07:03;;;;;;;10.43;8.40;;;3.50;99.90;;;;;;5238328;28;20212;-50
2023/12/15 00:09:33;;;;;;;16.97;9.50;;;3.50;99.90;;;;;;5220971;28;20189;-53
2023/12/15 00:12:04;;;;;;;11.93;9.00;;;3.50;99.90;;;;;;5224407;28;20468;-51
2023/12/15 00:14:35;;;;;;;14.83;8.53;;;3.40;99.90;;;;;;5226581;28;20216;-51
2023/12/15 00:17:06;;;;;;;13.23;8.47;;;3.40;99.90;;;;;;5223996;28;20839;-50
2023/12/15 00:19:36;;;;;;;15.00;9.50;;;3.40;99.90;;;;;;5227078;28;20181;-51
2023/12/15 00:22:07;;;;;;;16.30;8.70;;;3.40;99.90;;;;;;5224972;28;20199;-51
2023/12/15 00:24:38;;;;;;;12.40;8.30;;;3.30;99.90;;;;;;5226912;28;20544;-49
2023/12/15 00:27:09;;;;;;;13.23;9.23;;;3.30;99.90;;;;;;5225150;28;20212;-51
2023/12/15 00:29:40;;;;;;;15.23;9.37;;;3.40;99.90;;;;;;5220614;28;20614;-49
2023/12/15 00:32:10;;;;;;;13.37;7.73;;;3.20;99.90;;;;;;5225458;28;20806;-50
2023/12/15 00:34:41;;;;;;;13.40;8.40;;;3.20;99.90;;;;;;5225704;28;20469;-51
2023/12/15 00:37:12;;;;;;;15.63;8.30;;;3.30;99.90;;;;;;5225320;28;20198;-51
2023/12/15 00:39:43;;;;;;;12.63;8.20;;;3.20;99.90;;;;;;5223024;28;20241;-51
2023/12/15 00:42:14;;;;;;;9.13;7.17;;;3.20;99.90;;;;;;5225954;28;20176;-52
2023/12/15 00:44:45;;;;;;;15.27;8.17;;;3.20;99.90;;;;;;5224275;28;20177;-51
2023/12/15 00:47:16;;;;;;;14.33;7.50;;;3.20;99.90;;;;;;5227824;28;20223;-50
2023/12/15 00:49:46;;;;;;;16.67;8.70;;;3.20;99.90;;;;;;5225484;28;20419;-51
2023/12/15 00:52:17;;;;;;;12.13;8.50;;;3.20;99.90;;;;;;5224781;28;20439;-50
2023/12/15 00:54:48;;;;;;;21.37;9.20;;;3.20;99.90;;;;;;5221518;28;20215;-51
2023/12/15 00:57:19;;;;;;;14.37;9.47;;;3.20;99.90;;;;;;5225542;28;20188;-51
2023/12/15 00:59:50;;;;;;;15.03;8.13;;;3.20;99.90;;;;;;5227957;28;20273;-52
2023/12/15 01:02:20;;;;;;;14.63;9.10;;;3.20;99.90;;;;;;5225626;28;21009;-51
2023/12/15 01:04:51;;;;;;;10.90;7.53;;;3.20;99.90;;;;;;5229944;28;20193;-53
2023/12/15 01:07:23;;;;;;;12.00;8.47;;;3.20;99.90;;;;;;5224236;28;20312;-51
2023/12/15 01:09:54;;;;;;;17.33;8.90;;;3.20;99.90;;;;;;5223825;28;20714;-51
2023/12/15 01:12:24;;;;;;;10.93;8.27;;;3.20;99.90;;;;;;5225923;28;20614;-50
2023/12/15 01:14:55;;;;;;;19.53;8.40;;;3.20;99.90;;;;;;5225002;28;20197;-52
2023/12/15 01:17:26;;;;;;;9.00;7.37;;;3.20;99.90;;;;;;5224393;28;20200;-51
2023/12/15 01:19:56;;;;;;;13.20;8.27;;;3.20;99.90;;;;;;5221740;28;20187;-52
2023/12/15 01:22:27;;;;;;;16.80;9.40;;;3.20;99.90;;;;;;5226679;28;20194;-53
2023/12/15 01:24:58;;;;;;;15.77;8.50;;;3.10;99.90;;;;;;5226811;28;20193;-51
2023/12/15 01:27:29;;;;;;;14.80;8.80;;;3.10;99.90;;;;;;5223776;28;20226;-51
2023/12/15 01:29:59;;;;;;;13.07;8.97;;;3.10;99.90;;;;;;5205147;28;20687;-50
2023/12/15 01:32:30;;;;;;;14.53;8.43;;;3.10;99.90;;;;;;5207048;28;20192;-51
2023/12/15 01:35:01;;;;;;;9.23;8.10;;;3.10;99.90;;;;;;5225583;28;20299;-51
2023/12/15 01:37:32;;;;;;;11.23;7.53;;;3.10;99.90;;;;;;5223329;28;20204;-49
2023/12/15 01:40:03;;;;;;;11.90;7.63;;;3.00;99.90;;;;;;5223193;28;20769;-52
2023/12/15 01:42:33;;;;;;;11.33;7.53;;;3.10;99.90;;;;;;5222832;28;20178;-50
2023/12/15 01:45:05;;;;;;;10.03;7.40;;;3.10;99.90;;;;;;5225526;28;20459;-51
2023/12/15 01:47:36;;;;;;;12.17;8.27;;;3.10;99.90;;;;;;5226528;28;20199;-52
2023/12/15 01:50:07;;;;;;;13.13;8.47;;;3.10;99.90;;;;;;5206766;28;20427;-50
2023/12/15 01:52:38;;;;;;;11.27;7.40;;;3.10;99.90;;;;;;5223942;28;20459;-50
2023/12/15 01:55:09;;;;;;;15.50;8.60;;;3.10;99.90;;;;;;5227801;28;20436;-50
2023/12/15 01:57:42;;;;;;;14.23;9.60;;;3.10;99.90;;;;;;5222023;28;20458;-50
2023/12/15 02:00:13;;;;;;;11.60;8.03;;;3.10;99.90;;;;;;5220825;28;20440;-52
2023/12/15 02:02:44;;;;;;;19.43;8.23;;;3.10;99.90;;;;;;5225364;28;20441;-51
2023/12/15 02:05:15;;;;;;;12.03;8.40;;;3.10;99.90;;;;;;5226162;28;20528;-51
2023/12/15 02:07:45;;;;;;;15.30;7.20;;;3.10;99.90;;;;;;5223059;28;20570;-51
2023/12/15 02:10:16;;;;;;;10.03;7.37;;;3.10;99.90;;;;;;5223572;28;20179;-50
2023/12/15 02:12:47;;;;;;;15.87;7.90;;;3.10;99.90;;;;;;5225267;28;20271;-49
2023/12/15 02:15:18;;;;;;;13.80;8.03;;;3.10;99.90;;;;;;5226889;28;20539;-50
2023/12/15 02:17:49;;;;;;;10.40;7.17;;;3.00;99.90;;;;;;5225935;28;20743;-50
2023/12/15 02:20:19;;;;;;;6.97;6.27;;;2.80;99.90;;;;;;5222901;28;20485;-51
2023/12/15 02:22:50;;;;;;;13.27;7.97;;;2.70;99.90;;;;;;5229225;28;20184;-50
2023/12/15 02:25:21;;;;;;;13.77;6.73;;;2.60;99.90;;;;;;5227809;28;20180;-50
2023/12/15 02:27:53;;;;;;;9.17;7.53;;;2.50;99.90;;;;;;5227467;28;20285;-51
2023/12/15 02:30:24;;;;;;;9.97;6.70;;;2.40;99.90;;;;;;5224843;28;20183;-50
2023/12/15 02:32:54;;;;;;;14.73;7.30;;;2.30;99.90;;;;;;5224762;28;20422;-52
2023/12/15 02:35:25;;;;;;;11.97;6.90;;;2.20;99.90;;;;;;5226586;28;20199;-50
2023/12/15 02:37:56;;;;;;;12.63;7.30;;;2.10;99.90;;;;;;5228202;28;20199;-49
2023/12/15 02:40:27;;;;;;;11.20;7.43;;;2.00;99.90;;;;;;5224499;28;20433;-52
2023/12/15 02:42:58;;;;;;;9.47;6.53;;;1.90;99.90;;;;;;5224944;28;20232;-53
2023/12/15 02:45:28;;;;;;;12.23;6.97;;;1.90;99.90;;;;;;5227513;28;20194;-51
2023/12/15 02:47:59;;;;;;;9.67;6.40;;;1.80;99.90;;;;;;5226488;28;20198;-51
2023/12/15 02:50:30;;;;;;;11.97;6.70;;;1.70;99.90;;;;;;5225371;28;20189;-51
2023/12/15 02:53:01;;;;;;;9.83;6.60;;;1.70;99.90;;;;;;5225783;28;20208;-51
2023/12/15 02:55:32;;;;;;;11.80;6.50;;;1.70;99.90;;;;;;5226862;28;20190;-50
2023/12/15 02:58:02;;;;;;;8.90;6.33;;;1.70;99.90;;;;;;5223296;28;20218;-50
2023/12/15 03:00:33;;;;;;;7.80;6.47;;;1.70;99.90;;;;;;5226222;28;20244;-53
2023/12/15 03:03:05;;;;;;;10.73;7.60;;;1.70;99.90;;;;;;5225256;28;20214;-49
2023/12/15 03:05:36;;;;;;;10.37;7.07;;;1.70;99.90;;;;;;5224859;28;20648;-50
2023/12/15 03:08:07;;;;;;;10.63;8.17;;;1.80;99.90;;;;;;5224653;28;20456;-50
2023/12/15 03:10:37;;;;;;;10.67;7.03;;;1.70;99.90;;;;;;5226149;28;20663;-50
2023/12/15 03:13:08;;;;;;;9.37;7.07;;;1.70;99.90;;;;;;5224197;28;20475;-50
2023/12/15 03:15:39;;;;;;;9.43;6.67;;;1.70;99.90;;;;;;5222667;28;20179;-51
2023/12/15 03:18:10;;;;;;;7.60;6.33;;;1.60;99.90;;;;;;5221114;28;20325;-51
2023/12/15 03:20:40;;;;;;;9.57;7.03;;;1.60;99.90;;;;;;5221147;28;20264;-50
2023/12/15 03:23:11;;;;;;;10.80;7.93;;;1.50;99.90;;;;;;5239344;28;20631;-49
2023/12/15 03:25:42;;;;;;;9.50;7.07;;;1.50;99.90;;;;;;5228014;28;20206;-49
2023/12/15 03:28:12;;;;;;;15.97;8.97;;;1.50;99.90;;;;;;5225603;28;20203;-51
2023/12/15 03:30:43;;;;;;;14.53;7.93;;;1.50;99.90;;;;;;5228156;28;20670;-50
2023/12/15 03:33:14;;;;;;;13.23;7.90;;;1.40;99.90;;;;;;5227865;28;20203;-50
2023/12/15 03:35:44;;;;;;;10.37;6.80;;;1.40;99.90;;;;;;5228335;28;20179;-50
2023/12/15 03:38:15;;;;;;;12.73;8.33;;;1.40;99.90;;;;;;5226075;28;20199;-50
2023/12/15 03:40:46;;;;;;;21.23;9.67;;;1.50;99.90;;;;;;5230193;28;20179;-51
2023/12/15 03:43:17;;;;;;;14.73;8.27;;;1.40;99.90;;;;;;5228258;28;20187;-48
2023/12/15 03:45:50;;;;;;;12.00;8.07;;;1.40;99.90;;;;;;5227900;28;20195;-49
2023/12/15 03:48:21;;;;;;;12.17;8.60;;;1.40;99.90;;;;;;5227445;28;20224;-49
2023/12/15 03:50:52;;;;;;;11.90;7.93;;;1.40;99.90;;;;;;5209856;28;20510;-51
2023/12/15 03:53:22;;;;;;;15.90;7.40;;;1.30;99.90;;;;;;5225602;28;20211;-50
2023/12/15 03:55:53;;;;;;;17.03;9.20;;;1.30;99.90;;;;;;5227165;28;20179;-48
2023/12/15 03:58:24;;;;;;;15.17;9.87;;;1.30;99.90;;;;;;5225368;28;20667;-49
2023/12/15 04:00:54;;;;;;;11.53;8.07;;;1.30;99.90;;;;;;5228866;28;20291;-50
2023/12/15 04:03:25;;;;;;;14.63;9.50;;;1.20;99.90;;;;;;5224397;28;20742;-49
2023/12/15 04:05:56;;;;;;;12.10;8.67;;;1.20;99.90;;;;;;5227178;28;20187;-49
2023/12/15 04:08:27;;;;;;;18.27;9.83;;;1.20;99.90;;;;;;5224931;28;20265;-49
2023/12/15 04:10:58;;;;;;;15.97;10.40;;;1.20;99.90;;;;;;5230035;28;20187;-50
2023/12/15 04:13:29;;;;;;;13.47;9.10;;;1.20;99.90;;;;;;5226540;28;20511;-51
2023/12/15 04:16:00;;;;;;;16.63;9.50;;;1.20;99.90;;;;;;5230418;28;20179;-49
2023/12/15 04:18:32;;;;;;;15.67;10.17;;;1.20;99.90;;;;;;5225723;28;20199;-50
2023/12/15 04:21:03;;;;;;;15.47;9.30;;;1.30;99.90;;;;;;5224838;28;20573;-50
2023/12/15 04:23:34;;;;;;;15.63;10.00;;;1.30;99.90;;;;;;5223602;28;20442;-50
2023/12/15 04:26:05;;;;;;;13.63;9.90;;;1.30;99.90;;;;;;5229533;28;20417;-49
2023/12/15 04:28:36;;;;;;;17.50;9.77;;;1.30;99.90;;;;;;5224636;28;20461;-49
2023/12/15 04:31:12;;;;;;;12.53;9.80;;;1.20;99.90;;;;;;5231635;28;20434;-50
2023/12/15 04:33:43;;;;;;;12.87;9.40;;;1.10;99.90;;;;;;5224226;28;20515;-49
2023/12/15 04:36:19;;;;;;;20.53;11.03;;;1.00;99.90;;;;;;5226060;28;20438;-50
2023/12/15 04:38:50;;;;;;;15.63;9.93;;;1.10;99.90;;;;;;5227000;28;20202;-49
2023/12/15 04:41:27;;;;;;;26.50;12.53;;;1.20;99.90;;;;;;5224624;28;20430;-50
2023/12/15 04:43:58;;;;;;;18.20;11.30;;;1.20;99.90;;;;;;5231468;28;20428;-50
2023/12/15 04:46:30;;;;;;;17.20;11.33;;;1.30;99.90;;;;;;5225507;28;20429;-50
2023/12/15 04:49:01;;;;;;;19.80;10.70;;;1.30;99.90;;;;;;5226345;28;20202;-50
2023/12/15 04:51:32;;;;;;;20.43;10.97;;;1.30;99.90;;;;;;5224505;28;20433;-50
2023/12/15 04:54:03;;;;;;;21.00;12.77;;;1.30;99.90;;;;;;5226981;28;20234;-49
2023/12/15 04:56:34;;;;;;;20.63;12.57;;;1.40;99.90;;;;;;5225616;28;20778;-50
2023/12/15 04:59:04;;;;;;;23.73;13.57;;;1.50;99.90;;;;;;5229863;28;20180;-50
2023/12/15 05:01:35;;;;;;;34.30;15.73;;;1.50;99.90;;;;;;5229525;28;20544;-49
2023/12/15 05:04:06;;;;;;;26.67;13.70;;;1.60;99.90;;;;;;5225289;28;20270;-50
2023/12/15 05:06:37;;;;;;;25.80;13.50;;;1.60;99.90;;;;;;5227666;28;20179;-50
2023/12/15 05:09:09;;;;;;;24.20;13.80;;;1.70;99.90;;;;;;5223869;28;20214;-50
2023/12/15 05:11:40;;;;;;;18.90;11.60;;;1.60;99.90;;;;;;5226599;28;20229;-49
2023/12/15 05:14:11;;;;;;;25.50;12.67;;;1.60;99.90;;;;;;5225403;28;20551;-50
2023/12/15 05:16:41;;;;;;;26.10;11.50;;;1.60;99.90;;;;;;5227284;28;20430;-50
2023/12/15 05:19:12;;;;;;;21.33;11.90;;;1.60;99.90;;;;;;5225751;28;20175;-50
2023/12/15 05:21:43;;;;;;;18.87;10.13;;;1.60;99.90;;;;;;5226783;28;20313;-51
2023/12/15 05:24:14;;;;;;;16.73;9.80;;;1.50;99.90;;;;;;5224255;28;20317;-50
2023/12/15 05:26:45;;;;;;;24.30;12.67;;;1.50;99.90;;;;;;5225821;28;20267;-49
2023/12/15 05:29:16;;;;;;;22.50;11.60;;;1.50;99.90;;;;;;5225382;28;20497;-50
2023/12/15 05:31:46;;;;;;;22.03;11.80;;;1.50;99.90;;;;;;5222832;28;20175;-49
2023/12/15 05:34:17;;;;;;;22.97;12.10;;;1.50;99.90;;;;;;5222616;28;20194;-49
2023/12/15 05:36:48;;;;;;;17.53;11.70;;;1.60;99.90;;;;;;5226003;28;20528;-50
2023/12/15 05:39:19;;;;;;;31.00;13.27;;;1.50;99.90;;;;;;5223946;28;20181;-49
2023/12/15 05:41:49;;;;;;;20.27;11.83;;;1.50;99.90;;;;;;5225708;28;20205;-50
2023/12/15 05:44:20;;;;;;;21.73;12.33;;;1.50;99.90;;;;;;5227607;28;20198;-49
2023/12/15 05:46:51;;;;;;;25.03;12.80;;;1.50;99.90;;;;;;5223555;28;20202;-48
2023/12/15 05:49:22;;;;;;;19.43;12.07;;;1.50;99.90;;;;;;5221634;28;20197;-50
2023/12/15 05:51:55;;;;;;;24.67;13.90;;;1.60;99.90;;;;;;5217763;28;20182;-50
2023/12/15 05:54:26;;;;;;;23.00;11.77;;;1.60;99.90;;;;;;5223376;28;20461;-50
2023/12/15 05:56:57;;;;;;;22.00;11.67;;;1.70;99.90;;;;;;5227057;28;20872;-52
2023/12/15 05:59:28;;;;;;;21.47;12.20;;;1.80;99.90;;;;;;5230018;28;20213;-51
2023/12/15 06:01:59;;;;;;;18.87;11.33;;;1.80;99.90;;;;;;5221072;28;20438;-52
2023/12/15 06:04:29;;;;;;;20.63;11.50;;;1.80;99.90;;;;;;5227155;28;20217;-50
2023/12/15 06:07:00;;;;;;;23.97;12.13;;;1.90;99.90;;;;;;5224500;28;20206;-50
2023/12/15 06:09:31;;;;;;;17.97;10.57;;;1.80;99.90;;;;;;5220901;28;20237;-51
2023/12/15 06:12:02;;;;;;;21.93;10.37;;;1.90;99.90;;;;;;5225100;28;20282;-50
2023/12/15 06:14:35;;;;;;;19.83;11.57;;;1.90;99.90;;;;;;5227875;28;20697;-51
2023/12/15 06:17:06;;;;;;;17.37;10.70;;;1.90;99.90;;;;;;5227668;28;20457;-52
2023/12/15 06:19:40;;;;;;;20.83;10.90;;;2.00;99.90;;;;;;5223541;28;20437;-49
2023/12/15 06:22:10;;;;;;;17.17;10.93;;;1.90;99.90;;;;;;5226132;28;20434;-49
2023/12/15 06:24:41;;;;;;;19.20;11.07;;;1.90;99.90;;;;;;5222000;28;20449;-52
2023/12/15 06:27:12;;;;;;;20.03;11.93;;;1.90;99.90;;;;;;5220345;28;20200;-52
2023/12/15 06:29:42;;;;;;;22.73;11.80;;;1.90;99.90;;;;;;5225787;28;20292;-51
2023/12/15 06:32:15;;;;;;;21.20;11.73;;;2.00;99.90;;;;;;5223444;28;20210;-51
2023/12/15 06:34:46;;;;;;;21.20;12.40;;;2.00;99.90;;;;;;5222178;28;22385;-49
2023/12/15 06:37:17;;;;;;;19.07;11.40;;;2.00;99.90;;;;;;5222453;28;20457;-53
2023/12/15 06:39:49;;;;;;;23.87;12.03;;;2.00;99.90;;;;;;5224447;28;20193;-50
2023/12/15 06:42:20;;;;;;;20.47;12.10;;;1.90;99.90;;;;;;5226127;28;20521;-49
2023/12/15 06:44:51;;;;;;;24.90;13.20;;;1.90;99.90;;;;;;5228062;28;20429;-51
2023/12/15 06:47:21;;;;;;;23.50;12.90;;;1.90;99.90;;;;;;5225542;28;20705;-49
2023/12/15 06:49:52;;;;;;;24.27;12.30;;;1.90;99.90;;;;;;5223667;28;20553;-50
2023/12/15 06:52:23;;;;;;;20.77;11.70;;;1.90;99.90;;;;;;5225007;28;20221;-52
2023/12/15 06:54:53;;;;;;;23.40;12.83;;;1.90;99.90;;;;;;5222968;28;20603;-49
2023/12/15 06:57:24;;;;;;;25.73;13.90;;;1.90;99.90;;;;;;5223175;28;20202;-50
2023/12/15 06:59:55;;;;;;;23.73;13.17;;;2.00;99.90;;;;;;5224303;28;20171;-51
2023/12/15 07:02:26;;;;;;;29.00;14.47;;;2.10;99.90;;;;;;5225320;28;20552;-50
2023/12/15 07:04:56;;;;;;;22.77;12.73;;;2.10;99.90;;;;;;5225705;28;20442;-51
2023/12/15 07:07:27;;;;;;;25.30;12.97;;;2.10;99.90;;;;;;5226116;28;20223;-50
2023/12/15 07:09:58;;;;;;;22.97;13.37;;;2.20;99.90;;;;;;5226521;28;20179;-53
2023/12/15 07:12:29;;;;;;;23.40;14.10;;;2.30;99.90;;;;;;5223965;28;20195;-51
2023/12/15 07:15:00;;;;;;;25.97;13.67;;;2.40;99.90;;;;;;5225784;28;20268;-48
2023/12/15 07:17:31;;;;;;;25.03;14.60;;;2.30;99.90;;;;;;5220706;28;20449;-50
2023/12/15 07:20:04;;;;;;;24.37;14.80;;;2.50;99.90;;;;;;5224637;28;20449;-50
2023/12/15 07:22:35;;;;;;;29.73;15.73;;;2.50;99.90;;;;;;5225384;28;20937;-49
2023/12/15 07:25:09;;;;;;;30.00;15.97;;;2.60;99.90;;;;;;5220127;28;20442;-51
2023/12/15 07:27:41;;;;;;;25.93;15.13;;;2.60;99.90;;;;;;5219215;28;20463;-52
2023/12/15 07:30:15;;;;;;;37.07;16.33;;;2.60;99.90;;;;;;5225625;28;20437;-52
2023/12/15 07:32:46;;;;;;;23.03;14.37;;;2.70;99.90;;;;;;5227312;28;20505;-52
2023/12/15 07:35:17;;;;;;;29.77;16.57;;;2.70;99.90;;;;;;5226563;28;20469;-50
2023/12/15 07:37:47;;;;;;;25.80;14.60;;;2.70;99.90;;;;;;5228285;28;20457;-51
2023/12/15 07:40:19;;;;;;;35.27;15.20;;;2.80;99.90;;;;;;5227836;28;20191;-50
2023/12/15 07:42:49;;;;;;;31.20;16.97;;;2.80;99.90;;;;;;5227803;28;20178;-51
2023/12/15 07:45:21;;;;;;;33.57;17.83;;;2.80;99.90;;;;;;5225638;28;20437;-52
2023/12/15 07:47:53;;;;;;;30.13;16.60;;;2.90;99.90;;;;;;5231167;28;20249;-50
2023/12/15 07:50:27;;;;;;;30.03;14.00;;;2.80;99.90;;;;;;5229511;28;20425;-53
2023/12/15 07:52:58;;;;;;;34.20;16.67;;;2.90;99.90;;;;;;5221138;28;20426;-52
2023/12/15 07:55:28;;;;;;;30.63;16.63;;;2.80;99.90;;;;;;5224699;28;20440;-52
2023/12/15 07:58:08;;;;;;;25.80;14.93;;;2.90;99.90;;;;;;5226231;28;20195;-53
2023/12/15 08:00:39;;;;;;;37.87;18.03;;;2.90;99.90;;;;;;5228735;28;20643;-52
2023/12/15 08:03:10;;;;;;;34.70;17.60;;;2.90;99.90;;;;;;5229114;28;20469;-51
2023/12/15 08:05:41;;;;;;;29.43;17.10;;;3.00;99.90;;;;;;5226264;28;20434;-50
2023/12/15 08:08:11;;;;;;;35.93;16.30;;;3.00;99.90;;;;;;5223989;28;20878;-51
2023/12/15 08:10:42;;;;;;;34.10;17.50;;;3.10;99.90;;;;;;5222586;28;20238;-52
2023/12/15 08:13:14;;;;;;;29.83;17.97;;;3.20;99.90;;;;;;5226814;28;20215;-52
2023/12/15 08:15:47;;;;;;;27.90;16.17;;;3.20;99.90;;;;;;5224602;28;20195;-52
2023/12/15 08:18:19;;;;;;;40.20;17.27;;;3.20;99.90;;;;;;5226093;28;20465;-51
2023/12/15 08:20:50;;;;;;;41.83;18.50;;;3.30;99.90;;;;;;5218099;28;20428;-52
2023/12/15 08:23:21;;;;;;;33.80;16.13;;;3.40;99.90;;;;;;5221426;28;20430;-51
2023/12/15 08:25:52;;;;;;;33.87;17.37;;;3.60;99.90;;;;;;5222864;28;20981;-51
2023/12/15 08:28:23;;;;;;;36.97;18.70;;;3.40;99.90;;;;;;5224800;28;20215;-53
2023/12/15 08:30:54;;;;;;;44.33;18.57;;;3.40;99.90;;;;;;5218011;28;20425;-54
2023/12/15 08:33:25;;;;;;;33.23;17.17;;;3.50;99.90;;;;;;5211619;28;20203;-52
2023/12/15 08:35:56;;;;;;;34.23;17.97;;;3.50;99.90;;;;;;5209834;28;20198;-52
2023/12/15 08:38:29;;;;;;;32.83;17.30;;;3.50;99.90;;;;;;5215336;28;20490;-52
2023/12/15 08:41:00;;;;;;;31.67;17.40;;;3.60;99.90;;;;;;5215401;28;20190;-53
2023/12/15 08:43:31;;;;;;;32.07;17.67;;;3.60;99.90;;;;;;5227447;28;20789;-53
2023/12/15 08:46:02;;;;;;;37.80;19.33;;;3.70;99.90;;;;;;5225179;28;20441;-54
2023/12/15 08:48:33;;;;;;;37.27;19.03;;;3.70;99.90;;;;;;5227474;28;20209;-54
2023/12/15 08:51:04;;;;;;;36.73;19.67;;;3.80;99.90;;;;;;5228624;28;20196;-52
2023/12/15 08:53:37;;;;;;;39.50;19.10;;;3.80;99.90;;;;;;5223512;28;20475;-52
2023/12/15 08:56:13;;;;;;;43.03;18.60;;;3.80;99.90;;;;;;5222659;28;20440;-52
2023/12/15 08:58:44;;;;;;;31.77;17.83;;;3.70;99.90;;;;;;5223768;28;20459;-50
2023/12/15 09:01:15;;;;;;;34.43;18.13;;;3.70;99.90;;;;;;5225612;28;20451;-50
2023/12/15 09:03:46;;;;;;;38.70;19.40;;;3.80;99.90;;;;;;5224617;28;20438;-51
2023/12/15 09:06:17;;;;;;;46.07;20.90;;;4.00;99.90;;;;;;5226266;28;20562;-54
2023/12/15 09:08:48;;;;;;;34.43;17.33;;;4.20;99.90;;;;;;5223319;28;20217;-54
2023/12/15 09:11:21;;;;;;;35.90;18.03;;;4.30;99.90;;;;;;5226179;28;20320;-52
2023/12/15 09:13:54;;;;;;;34.87;16.63;;;4.40;99.90;;;;;;5225454;28;20468;-52
2023/12/15 09:16:26;;;;;;;35.80;18.67;;;4.40;99.90;;;;;;5222965;28;20441;-52
2023/12/15 09:18:57;;;;;;;39.77;19.33;;;4.50;99.90;;;;;;5224109;28;20460;-51
2023/12/15 09:21:28;;;;;;;34.40;17.47;;;4.40;99.90;;;;;;5223780;28;20964;-52
2023/12/15 09:23:59;;;;;;;34.93;18.77;;;4.40;99.90;;;;;;5225551;28;20437;-54
2023/12/15 09:26:30;;;;;;;37.97;19.47;;;4.40;99.90;;;;;;5224700;28;20680;-52
2023/12/15 09:29:01;;;;;;;39.60;19.37;;;4.50;99.90;;;;;;5222733;28;20185;-54
2023/12/15 09:31:32;;;;;;;34.60;18.73;;;4.50;99.90;;;;;;5223197;28;20462;-55
2023/12/15 09:34:03;;;;;;;35.77;20.00;;;4.50;99.90;;;;;;5223091;28;20209;-51
2023/12/15 09:36:34;;;;;;;39.27;19.93;;;4.60;99.90;;;;;;5226904;28;20876;-52
2023/12/15 09:39:05;;;;;;;36.93;18.93;;;4.50;99.90;;;;;;5225992;28;20416;-53
2023/12/15 09:41:35;;;;;;;40.77;19.63;;;4.60;99.90;;;;;;5225683;28;20437;-52
2023/12/15 09:44:06;;;;;;;38.17;18.53;;;4.80;99.90;;;;;;5225157;28;20229;-51
2023/12/15 09:46:39;;;;;;;46.80;19.77;;;4.80;99.90;;;;;;5224334;28;20205;-52
2023/12/15 09:49:16;;;;;;;38.33;18.50;;;4.80;99.90;;;;;;5222116;28;20189;-52
2023/12/15 09:51:50;;;;;;;41.33;19.93;;;4.80;99.90;;;;;;5217844;28;20443;-53
2023/12/15 09:54:21;;;;;;;35.07;19.73;;;4.80;99.90;;;;;;5224432;28;20471;-52
2023/12/15 09:56:55;;;;;;;39.80;18.40;;;4.80;99.90;;;;;;5215244;28;20492;-53
2023/12/15 09:59:25;;;;;;;27.90;17.73;;;4.90;99.90;;;;;;5220726;28;20472;-53
2023/12/15 10:01:56;;;;;;;32.10;18.20;;;4.90;99.90;;;;;;5219679;28;20442;-52
2023/12/15 10:04:27;;;;;;;28.50;16.93;;;4.90;99.90;;;;;;5216515;28;20206;-51
2023/12/15 10:09:31;;;;;;;32.70;17.73;;;5.00;99.90;;;;;;5169482;28;20582;-49
2023/12/15 10:12:02;;;;;;;34.40;18.20;;;5.10;99.90;;;;;;5170603;28;20445;-51
2023/12/15 10:14:37;;;;;;;37.20;18.93;;;5.10;99.90;;;;;;5177111;28;20221;-47
2023/12/15 10:17:11;;;;;;;30.43;18.60;;;5.10;99.90;;;;;;5180915;28;20186;-47
2023/12/15 10:19:42;;;;;;;33.30;16.83;;;5.20;99.90;;;;;;5180556;28;20435;-48
2023/12/15 10:22:12;;;;;;;32.40;17.23;;;5.30;99.90;;;;;;5180128;28;20946;-49
2023/12/15 10:24:43;;;;;;;29.77;16.37;;;5.30;99.90;;;;;;5176035;28;20693;-50
2023/12/15 10:27:14;;;;;;;34.03;17.80;;;5.30;99.90;;;;;;5167324;28;20797;-47
2023/12/15 10:29:44;;;;;;;44.67;17.80;;;5.20;99.90;;;;;;5160230;28;20191;-49
2023/12/15 10:32:15;;;;;;;30.73;17.43;;;5.20;99.90;;;;;;5164950;28;20215;-48
2023/12/15 10:34:50;;;;;;;27.67;16.60;;;5.10;99.90;;;;;;5183725;28;20284;-48
2023/12/15 10:37:21;;;;;;;37.07;16.97;;;5.10;99.90;;;;;;5183265;28;20202;-48
2023/12/15 10:39:51;;;;;;;31.73;17.43;;;5.10;99.90;;;;;;5203304;28;20446;-49
2023/12/15 10:42:23;;;;;;;31.77;17.00;;;5.20;99.90;;;;;;5187223;28;20184;-48
2023/12/15 10:44:56;;;;;;;31.07;17.07;;;5.10;99.90;;;;;;5191282;28;20180;-49
2023/12/15 10:47:27;;;;;;;33.90;18.03;;;5.10;99.90;;;;;;5190627;28;20467;-50
2023/12/15 10:50:00;;;;;;;31.33;16.70;;;5.10;99.90;;;;;;5190186;28;20434;-49
2023/12/15 10:52:33;;;;;;;36.63;17.47;;;5.10;99.90;;;;;;5190866;28;20195;-49
2023/12/15 10:55:06;;;;;;;32.67;16.07;;;5.00;99.90;;;;;;5189335;28;20528;-49
2023/12/15 10:57:37;;;;;;;27.10;16.97;;;5.10;99.90;;;;;;5186141;28;20804;-47
2023/12/15 11:00:08;;;;;;;30.10;16.43;;;5.00;99.90;;;;;;5184183;28;20488;-48
2023/12/15 11:02:40;;;;;;;35.37;19.37;;;5.00;99.90;;;;;;5180033;28;20246;-50
2023/12/15 11:05:11;;;;;;;31.37;17.67;;;5.10;99.90;;;;;;5177641;28;20423;-49
2023/12/15 11:07:42;;;;;;;34.33;16.60;;;5.10;99.90;;;;;;5186219;28;20615;-48
2023/12/15 11:10:12;;;;;;;28.00;16.07;;;5.20;99.90;;;;;;5185245;28;20221;-50
2023/12/15 11:12:43;;;;;;;44.93;18.87;;;5.20;99.90;;;;;;5182660;28;20450;-49
2023/12/15 11:15:14;;;;;;;34.77;18.60;;;5.40;99.90;;;;;;5187076;28;20294;-47
2023/12/15 11:17:49;;;;;;;30.80;17.67;;;5.40;99.90;;;;;;5184169;28;20235;-52
2023/12/15 11:20:20;;;;;;;34.80;17.70;;;5.40;99.90;;;;;;5184656;28;20258;-48
2023/12/15 11:22:59;;;;;;;35.87;17.50;;;5.20;99.90;;;;;;5181999;28;20446;-47
2023/12/15 11:25:32;;;;;;;23.37;15.40;;;5.30;99.90;;;;;;5183553;28;20188;-49
2023/12/15 11:28:08;;;;;;;34.13;18.00;;;5.20;99.90;;;;;;5180337;28;20994;-47
2023/12/15 11:30:54;;;;;;;39.50;18.87;;;5.10;99.90;;;;;;5179164;28;20438;-49
2023/12/15 11:33:39;;;;;;;40.20;17.50;;;5.20;99.90;;;;;;5181422;28;20464;-48
2023/12/15 11:36:13;;;;;;;27.87;16.50;;;5.10;99.90;;;;;;5181248;28;20423;-47
2023/12/15 11:38:50;;;;;;;32.43;15.30;;;5.00;99.90;;;;;;5184307;28;20473;-47
2023/12/15 11:41:22;;;;;;;30.43;17.50;;;5.10;99.90;;;;;;5183927;28;20478;-48
2023/12/15 11:43:53;;;;;;;34.17;16.33;;;5.10;99.90;;;;;;5182926;28;20529;-49
2023/12/15 11:46:25;;;;;;;26.77;16.77;;;4.90;99.90;;;;;;5183882;28;21038;-47
2023/12/15 11:48:55;;;;;;;30.73;16.23;;;4.90;99.90;;;;;;5182415;28;20633;-47
2023/12/15 11:51:29;;;;;;;32.50;16.63;;;4.90;99.90;;;;;;5184650;28;20943;-48
2023/12/15 11:54:02;;;;;;;35.07;17.97;;;4.90;99.90;;;;;;5184986;28;20590;-48
2023/12/15 11:56:33;;;;;;;31.57;17.27;;;4.90;99.90;;;;;;5184457;28;20482;-48
2023/12/15 11:59:04;;;;;;;36.27;15.67;;;4.90;99.90;;;;;;5186510;28;21464;-52
2023/12/15 12:01:39;;;;;;;37.50;18.27;;;4.90;99.90;;;;;;5181410;28;20436;-48
2023/12/15 12:04:19;;;;;;;34.60;18.10;;;4.90;99.90;;;;;;5184732;28;20195;-48
2023/12/15 12:06:51;;;;;;;30.50;17.50;;;4.90;99.90;;;;;;5183615;28;20427;-48
2023/12/15 12:09:22;;;;;;;43.23;18.37;;;4.80;99.90;;;;;;5183939;28;20454;-48
2023/12/15 12:11:55;;;;;;;32.80;17.77;;;4.90;99.90;;;;;;5181409;28;20554;-50
2023/12/15 12:14:27;;;;;;;33.23;15.30;;;4.90;99.90;;;;;;5182339;28;20462;-47
2023/12/15 12:16:59;;;;;;;39.20;20.73;;;4.90;99.90;;;;;;5184151;28;20989;-51
2023/12/15 12:19:37;;;;;;;32.63;17.87;;;4.80;99.90;;;;;;5183678;28;20450;-48
2023/12/15 12:22:12;;;;;;;38.77;20.80;;;4.90;99.90;;;;;;5180301;28;20439;-48
2023/12/15 12:24:42;;;;;;;45.70;20.77;;;5.00;99.90;;;;;;5183502;28;20434;-53
2023/12/15 12:27:13;;;;;;;50.00;20.27;;;5.10;99.90;;;;;;5161746;28;20459;-49
2023/12/15 12:29:44;;;;;;;35.97;18.87;;;5.10;99.90;;;;;;5177870;28;20202;-47
2023/12/15 12:32:14;;;;;;;39.33;20.77;;;5.10;99.90;;;;;;5179650;28;20663;-50
2023/12/15 12:34:46;;;;;;;41.57;18.20;;;5.00;99.90;;;;;;5182700;28;20268;-48
2023/12/15 12:37:17;;;;;;;43.80;20.10;;;5.00;99.90;;;;;;5183659;28;20546;-49
2023/12/15 12:39:48;;;;;;;40.57;21.27;;;5.00;99.90;;;;;;5167095;28;20189;-48
2023/12/15 12:42:19;;;;;;;42.67;19.00;;;5.00;99.90;;;;;;5184498;28;20426;-48
2023/12/15 12:44:50;;;;;;;43.73;20.77;;;5.00;99.90;;;;;;5181007;28;20196;-48
2023/12/15 12:47:21;;;;;;;39.50;20.47;;;5.00;99.90;;;;;;5183932;28;20208;-48
2023/12/15 12:49:52;;;;;;;36.27;18.60;;;5.10;99.90;;;;;;5182474;28;20435;-48
2023/12/15 12:52:23;;;;;;;43.50;20.13;;;5.10;99.90;;;;;;5183037;28;20945;-49
2023/12/15 12:54:53;;;;;;;39.73;17.50;;;5.10;99.90;;;;;;5184843;28;20466;-48
2023/12/15 12:57:28;;;;;;;38.20;19.00;;;5.00;99.90;;;;;;5187122;28;20210;-49
2023/12/15 12:59:58;;;;;;;40.33;19.20;;;5.00;99.90;;;;;;5187385;28;20179;-49
2023/12/15 13:02:29;;;;;;;44.90;21.43;;;5.00;99.90;;;;;;5185960;28;20437;-49
2023/12/15 13:05:00;;;;;;;50.50;21.70;;;5.00;99.90;;;;;;5183998;28;20195;-51